AEE386 LGAV-LGKR
Flight info
| Callsign | AEE386 |
|---|---|
| Flight time | 0h 43m |
| Altitude | 32000 |
| Route | KOR UL53 PARNA |
| Aircraft | A320/M-SDE3FGHIRWY/LB1 |
Departure
| Time | 2026-05-04 12:41 |
|---|---|
| Airport | Athens Eleftherios Venizelos International Airport (LGAV) |
Arrival
| Time | 2026-05-04 13:25 |
|---|---|
| Airport | Corfu Ioannis Kapodistrias International Airport (LGKR) |
| Time | Latitude | Longitude | Altitude | Speed | Heading |
|---|---|---|---|---|---|
| 2026-05-04 12:04 | 37.93078 | 23.94233 | 301 ft | 0 kts | 37° |
| 2026-05-04 12:07 | 37.93049 | 23.94280 | 303 ft | 0 kts | 37° |
| 2026-05-04 12:32 | 37.93042 | 23.94273 | 301 ft | 4 kts | 37° |
| 2026-05-04 12:33 | 37.93020 | 23.94252 | 302 ft | 4 kts | 39° |
| 2026-05-04 12:33 | 37.93000 | 23.94230 | 301 ft | 4 kts | 46° |
| 2026-05-04 12:33 | 37.92984 | 23.94204 | 301 ft | 4 kts | 76° |
| 2026-05-04 12:33 | 37.92984 | 23.94185 | 301 ft | 0 kts | 127° |
| 2026-05-04 12:36 | 37.92983 | 23.94188 | 301 ft | 1 kts | 127° |
| 2026-05-04 12:37 | 37.92971 | 23.94208 | 301 ft | 5 kts | 127° |
| 2026-05-04 12:37 | 37.92936 | 23.94267 | 304 ft | 12 kts | 127° |
| 2026-05-04 12:37 | 37.92873 | 23.94370 | 301 ft | 16 kts | 127° |
| 2026-05-04 12:37 | 37.92810 | 23.94453 | 302 ft | 11 kts | 160° |
| 2026-05-04 12:38 | 37.92739 | 23.94417 | 303 ft | 12 kts | 217° |
| 2026-05-04 12:38 | 37.92666 | 23.94348 | 303 ft | 14 kts | 217° |
| 2026-05-04 12:38 | 37.92591 | 23.94288 | 303 ft | 11 kts | 192° |
| 2026-05-04 12:38 | 37.92531 | 23.94334 | 305 ft | 10 kts | 125° |
| 2026-05-04 12:39 | 37.92492 | 23.94402 | 308 ft | 9 kts | 126° |
| 2026-05-04 12:39 | 37.92497 | 23.94464 | 308 ft | 8 kts | 46° |
| 2026-05-04 12:39 | 37.92510 | 23.94476 | 308 ft | 0 kts | 34° |
| 2026-05-04 12:41 | 37.92685 | 23.94641 | 304 ft | 69 kts | 37° |
| 2026-05-04 12:41 | 37.93241 | 23.95169 | 292 ft | 128 kts | 37° |
| 2026-05-04 12:41 | 37.94085 | 23.95952 | 412 ft | 161 kts | 37° |
| 2026-05-04 12:41 | 37.94983 | 23.96784 | 1145 ft | 161 kts | 37° |
| 2026-05-04 12:42 | 37.95895 | 23.97670 | 1660 ft | 173 kts | 34° |
| 2026-05-04 12:42 | 37.96919 | 23.98654 | 1987 ft | 196 kts | 34° |
| 2026-05-04 12:42 | 37.98074 | 23.99760 | 2365 ft | 221 kts | 33° |
| 2026-05-04 12:42 | 37.99348 | 24.00985 | 3062 ft | 234 kts | 33° |
| 2026-05-04 12:43 | 38.00659 | 24.02248 | 3966 ft | 239 kts | 33° |
| 2026-05-04 12:43 | 38.01998 | 24.03539 | 4886 ft | 244 kts | 34° |
| 2026-05-04 12:43 | 38.03387 | 24.04835 | 5628 ft | 255 kts | 27° |
| 2026-05-04 12:43 | 38.05085 | 24.05436 | 6349 ft | 257 kts | 357° |
| 2026-05-04 12:44 | 38.06808 | 24.04892 | 7154 ft | 258 kts | 329° |
| 2026-05-04 12:44 | 38.08109 | 24.03339 | 8012 ft | 262 kts | 303° |
| 2026-05-04 12:44 | 38.08773 | 24.01157 | 8872 ft | 269 kts | 287° |
| 2026-05-04 12:44 | 38.09210 | 23.98822 | 9729 ft | 274 kts | 285° |
| 2026-05-04 12:45 | 38.09620 | 23.96427 | 10388 ft | 286 kts | 285° |
| 2026-05-04 12:45 | 38.09798 | 23.93798 | 10638 ft | 313 kts | 272° |
| 2026-05-04 12:45 | 38.09752 | 23.90929 | 10820 ft | 337 kts | 271° |
| 2026-05-04 12:45 | 38.09677 | 23.87877 | 11224 ft | 351 kts | 271° |
| 2026-05-04 12:46 | 38.09588 | 23.84754 | 11885 ft | 357 kts | 271° |
| 2026-05-04 12:46 | 38.09498 | 23.81585 | 12560 ft | 362 kts | 271° |
| 2026-05-04 12:46 | 38.09410 | 23.78377 | 13239 ft | 367 kts | 271° |
| 2026-05-04 12:46 | 38.09325 | 23.75119 | 13915 ft | 371 kts | 271° |
| 2026-05-04 12:47 | 38.09241 | 23.71827 | 14549 ft | 375 kts | 271° |
| 2026-05-04 12:47 | 38.09155 | 23.68511 | 15173 ft | 378 kts | 271° |
| 2026-05-04 12:47 | 38.09066 | 23.65163 | 15763 ft | 381 kts | 271° |
| 2026-05-04 12:47 | 38.08973 | 23.61779 | 16340 ft | 386 kts | 271° |
| 2026-05-04 12:48 | 38.08881 | 23.58365 | 16947 ft | 389 kts | 271° |
| 2026-05-04 12:48 | 38.08786 | 23.54908 | 17548 ft | 394 kts | 271° |
| 2026-05-04 12:48 | 38.08687 | 23.51413 | 18165 ft | 398 kts | 271° |
| 2026-05-04 12:48 | 38.08585 | 23.47930 | 18734 ft | 402 kts | 269° |
| 2026-05-04 12:49 | 38.08482 | 23.44371 | 19329 ft | 405 kts | 271° |
| 2026-05-04 12:49 | 38.08381 | 23.40788 | 19958 ft | 406 kts | 271° |
| 2026-05-04 12:49 | 38.08279 | 23.37217 | 20686 ft | 404 kts | 272° |
| 2026-05-04 12:49 | 38.08177 | 23.33646 | 21270 ft | 406 kts | 272° |
| 2026-05-04 12:50 | 38.08075 | 23.30064 | 21875 ft | 406 kts | 274° |
| 2026-05-04 12:50 | 38.07970 | 23.26504 | 22526 ft | 404 kts | 274° |
| 2026-05-04 12:50 | 38.07862 | 23.22933 | 23092 ft | 405 kts | 274° |
| 2026-05-04 12:50 | 38.07751 | 23.19359 | 23605 ft | 406 kts | 274° |
| 2026-05-04 12:51 | 38.07640 | 23.15768 | 24033 ft | 408 kts | 275° |
| 2026-05-04 12:51 | 38.07531 | 23.12163 | 24426 ft | 410 kts | 275° |
| 2026-05-04 12:51 | 38.07421 | 23.08545 | 24798 ft | 410 kts | 275° |
| 2026-05-04 12:51 | 38.07311 | 23.04922 | 25222 ft | 411 kts | 275° |
| 2026-05-04 12:52 | 38.07202 | 23.01297 | 25604 ft | 412 kts | 275° |
| 2026-05-04 12:52 | 38.07089 | 22.97653 | 25983 ft | 414 kts | 275° |
| 2026-05-04 12:52 | 38.06971 | 22.93993 | 26365 ft | 416 kts | 275° |
| 2026-05-04 12:52 | 38.06847 | 22.90317 | 26716 ft | 418 kts | 275° |
| 2026-05-04 12:53 | 38.06763 | 22.87871 | 26959 ft | 420 kts | 275° |
| 2026-05-04 12:53 | 38.06592 | 22.82909 | 27433 ft | 422 kts | 275° |
| 2026-05-04 12:53 | 38.06463 | 22.79179 | 27782 ft | 424 kts | 275° |
| 2026-05-04 12:53 | 38.06375 | 22.75437 | 28079 ft | 422 kts | 279° |
| 2026-05-04 12:54 | 38.06703 | 22.71772 | 28405 ft | 415 kts | 288° |
| 2026-05-04 12:54 | 38.07188 | 22.69441 | 28619 ft | 411 kts | 294° |
| 2026-05-04 12:54 | 38.08294 | 22.66138 | 29085 ft | 403 kts | 303° |
| 2026-05-04 12:54 | 38.09772 | 22.63156 | 29561 ft | 398 kts | 309° |
| 2026-05-04 12:55 | 38.11350 | 22.60279 | 30042 ft | 396 kts | 309° |
| 2026-05-04 12:55 | 38.12918 | 22.57413 | 30509 ft | 394 kts | 309° |
| 2026-05-04 12:55 | 38.14478 | 22.54557 | 30918 ft | 393 kts | 308° |
| 2026-05-04 12:55 | 38.16039 | 22.51704 | 31323 ft | 392 kts | 308° |
| 2026-05-04 12:56 | 38.17589 | 22.48864 | 31745 ft | 391 kts | 308° |
| 2026-05-04 12:56 | 38.19138 | 22.46021 | 32065 ft | 391 kts | 308° |
| 2026-05-04 12:56 | 38.20687 | 22.43172 | 32100 ft | 391 kts | 308° |
| 2026-05-04 12:57 | 38.23800 | 22.37434 | 32128 ft | 395 kts | 308° |
| 2026-05-04 12:57 | 38.26923 | 22.31676 | 32128 ft | 395 kts | 308° |
| 2026-05-04 12:58 | 38.30043 | 22.25919 | 32145 ft | 396 kts | 308° |
| 2026-05-04 12:58 | 38.33174 | 22.20134 | 32125 ft | 397 kts | 308° |
| 2026-05-04 12:59 | 38.36309 | 22.14329 | 32126 ft | 398 kts | 307° |
| 2026-05-04 12:59 | 38.39436 | 22.08522 | 32098 ft | 397 kts | 308° |
| 2026-05-04 13:00 | 38.42558 | 22.02715 | 32110 ft | 397 kts | 308° |
| 2026-05-04 13:00 | 38.45679 | 21.96899 | 32117 ft | 397 kts | 308° |
| 2026-05-04 13:01 | 38.48795 | 21.91088 | 32113 ft | 397 kts | 308° |
| 2026-05-04 13:01 | 38.51907 | 21.85261 | 32112 ft | 398 kts | 308° |
| 2026-05-04 13:02 | 38.55005 | 21.79455 | 32100 ft | 398 kts | 308° |
| 2026-05-04 13:02 | 38.58119 | 21.73619 | 32099 ft | 397 kts | 308° |
| 2026-05-04 13:03 | 38.61217 | 21.67795 | 32103 ft | 395 kts | 308° |
| 2026-05-04 13:03 | 38.64296 | 21.61997 | 31221 ft | 393 kts | 308° |
| 2026-05-04 13:03 | 38.65833 | 21.59093 | 30293 ft | 395 kts | 308° |
| 2026-05-04 13:04 | 38.67380 | 21.56169 | 29228 ft | 398 kts | 308° |
| 2026-05-04 13:04 | 38.68942 | 21.53215 | 28090 ft | 403 kts | 308° |
| 2026-05-04 13:04 | 38.70519 | 21.50229 | 26916 ft | 408 kts | 307° |
| 2026-05-04 13:04 | 38.72116 | 21.47208 | 26100 ft | 410 kts | 308° |
| 2026-05-04 13:05 | 38.73717 | 21.44175 | 25684 ft | 412 kts | 308° |
| 2026-05-04 13:05 | 38.75325 | 21.41127 | 25250 ft | 412 kts | 308° |
| 2026-05-04 13:05 | 38.76924 | 21.38093 | 24819 ft | 411 kts | 308° |
| 2026-05-04 13:05 | 38.78515 | 21.35066 | 24403 ft | 410 kts | 308° |
| 2026-05-04 13:06 | 38.80105 | 21.32039 | 23980 ft | 408 kts | 308° |
| 2026-05-04 13:06 | 38.81688 | 21.29025 | 23528 ft | 407 kts | 308° |
| 2026-05-04 13:06 | 38.83266 | 21.26018 | 23054 ft | 405 kts | 308° |
| 2026-05-04 13:06 | 38.84832 | 21.23032 | 22567 ft | 402 kts | 308° |
| 2026-05-04 13:07 | 38.86384 | 21.20061 | 22095 ft | 399 kts | 307° |
| 2026-05-04 13:07 | 38.87924 | 21.17111 | 21630 ft | 396 kts | 307° |
| 2026-05-04 13:07 | 38.89454 | 21.14185 | 21173 ft | 394 kts | 307° |
| 2026-05-04 13:07 | 38.90979 | 21.11271 | 20701 ft | 392 kts | 307° |
| 2026-05-04 13:08 | 38.92498 | 21.08369 | 20249 ft | 390 kts | 307° |
| 2026-05-04 13:08 | 38.94004 | 21.05488 | 19812 ft | 387 kts | 307° |
| 2026-05-04 13:08 | 38.95497 | 21.02621 | 19381 ft | 385 kts | 307° |
| 2026-05-04 13:08 | 38.96979 | 20.99771 | 18967 ft | 383 kts | 307° |
| 2026-05-04 13:09 | 38.98457 | 20.96935 | 18544 ft | 381 kts | 307° |
| 2026-05-04 13:09 | 38.99927 | 20.94111 | 18077 ft | 379 kts | 307° |
| 2026-05-04 13:09 | 39.01389 | 20.91298 | 17603 ft | 378 kts | 307° |
| 2026-05-04 13:09 | 39.02842 | 20.88495 | 17120 ft | 376 kts | 307° |
| 2026-05-04 13:10 | 39.04286 | 20.85707 | 16659 ft | 374 kts | 307° |
| 2026-05-04 13:10 | 39.05724 | 20.82924 | 16202 ft | 372 kts | 307° |
| 2026-05-04 13:10 | 39.07133 | 20.80194 | 15734 ft | 371 kts | 307° |
| 2026-05-04 13:10 | 39.08562 | 20.77426 | 15286 ft | 371 kts | 307° |
| 2026-05-04 13:11 | 39.09989 | 20.74665 | 14846 ft | 370 kts | 307° |
| 2026-05-04 13:11 | 39.11415 | 20.71907 | 14409 ft | 369 kts | 307° |
| 2026-05-04 13:11 | 39.12834 | 20.69153 | 13969 ft | 368 kts | 307° |
| 2026-05-04 13:11 | 39.14252 | 20.66396 | 13494 ft | 370 kts | 307° |
| 2026-05-04 13:12 | 39.15664 | 20.63644 | 13018 ft | 366 kts | 307° |
| 2026-05-04 13:12 | 39.17067 | 20.60909 | 12533 ft | 365 kts | 307° |
| 2026-05-04 13:12 | 39.18460 | 20.58194 | 12072 ft | 362 kts | 307° |
| 2026-05-04 13:12 | 39.19849 | 20.55486 | 11618 ft | 362 kts | 306° |
| 2026-05-04 13:13 | 39.21233 | 20.52787 | 11172 ft | 360 kts | 306° |
| 2026-05-04 13:13 | 39.22612 | 20.50093 | 10724 ft | 357 kts | 306° |
| 2026-05-04 13:13 | 39.23959 | 20.47451 | 10294 ft | 348 kts | 306° |
| 2026-05-04 13:13 | 39.25270 | 20.44880 | 9841 ft | 339 kts | 306° |
| 2026-05-04 13:14 | 39.26361 | 20.42208 | 9392 ft | 335 kts | 294° |
| 2026-05-04 13:14 | 39.27034 | 20.39380 | 9013 ft | 315 kts | 289° |
| 2026-05-04 13:14 | 39.27617 | 20.36748 | 8653 ft | 296 kts | 289° |
| 2026-05-04 13:14 | 39.28170 | 20.34265 | 8297 ft | 281 kts | 289° |
| 2026-05-04 13:15 | 39.28697 | 20.31910 | 7954 ft | 275 kts | 289° |
| 2026-05-04 13:15 | 39.29233 | 20.29537 | 7606 ft | 276 kts | 289° |
| 2026-05-04 13:15 | 39.29767 | 20.27162 | 7258 ft | 275 kts | 289° |
| 2026-05-04 13:15 | 39.30297 | 20.24796 | 6916 ft | 274 kts | 288° |
| 2026-05-04 13:16 | 39.30825 | 20.22432 | 6574 ft | 273 kts | 288° |
| 2026-05-04 13:16 | 39.31350 | 20.20078 | 6218 ft | 273 kts | 288° |
| 2026-05-04 13:16 | 39.31877 | 20.17725 | 5858 ft | 272 kts | 288° |
| 2026-05-04 13:16 | 39.32396 | 20.15395 | 5498 ft | 265 kts | 288° |
| 2026-05-04 13:17 | 39.32892 | 20.13155 | 5142 ft | 254 kts | 288° |
| 2026-05-04 13:17 | 39.33365 | 20.11005 | 4795 ft | 244 kts | 288° |
| 2026-05-04 13:17 | 39.33813 | 20.08961 | 4587 ft | 232 kts | 288° |
| 2026-05-04 13:17 | 39.34247 | 20.06985 | 4383 ft | 225 kts | 288° |
| 2026-05-04 13:18 | 39.34671 | 20.05064 | 4182 ft | 220 kts | 288° |
| 2026-05-04 13:18 | 39.35085 | 20.03186 | 3977 ft | 215 kts | 288° |
| 2026-05-04 13:18 | 39.35493 | 20.01358 | 3782 ft | 209 kts | 290° |
| 2026-05-04 13:18 | 39.36164 | 19.99742 | 3569 ft | 201 kts | 311° |
| 2026-05-04 13:19 | 39.37218 | 19.98606 | 3384 ft | 195 kts | 332° |
| 2026-05-04 13:19 | 39.38468 | 19.98062 | 3249 ft | 186 kts | 351° |
| 2026-05-04 13:19 | 39.39732 | 19.97971 | 3061 ft | 179 kts | 356° |
| 2026-05-04 13:19 | 39.40948 | 19.97905 | 2874 ft | 171 kts | 356° |
| 2026-05-04 13:20 | 39.42114 | 19.97823 | 2731 ft | 166 kts | 351° |
| 2026-05-04 13:20 | 39.43222 | 19.97472 | 2552 ft | 161 kts | 342° |
| 2026-05-04 13:20 | 39.44283 | 19.97070 | 2413 ft | 158 kts | 342° |
| 2026-05-04 13:20 | 39.45294 | 19.96691 | 2253 ft | 147 kts | 342° |
| 2026-05-04 13:21 | 39.46257 | 19.96332 | 2102 ft | 142 kts | 340° |
| 2026-05-04 13:21 | 39.47195 | 19.95981 | 1978 ft | 140 kts | 341° |
| 2026-05-04 13:21 | 39.48134 | 19.95629 | 1885 ft | 140 kts | 340° |
| 2026-05-04 13:21 | 39.49056 | 19.95285 | 1807 ft | 137 kts | 342° |
| 2026-05-04 13:22 | 39.49969 | 19.94943 | 1741 ft | 136 kts | 341° |
| 2026-05-04 13:22 | 39.50881 | 19.94600 | 1715 ft | 137 kts | 339° |
| 2026-05-04 13:22 | 39.51793 | 19.94257 | 1686 ft | 138 kts | 341° |
| 2026-05-04 13:22 | 39.52713 | 19.93911 | 1469 ft | 136 kts | 340° |
| 2026-05-04 13:23 | 39.53619 | 19.93572 | 1276 ft | 138 kts | 340° |
| 2026-05-04 13:23 | 39.54507 | 19.93124 | 1088 ft | 137 kts | 326° |
| 2026-05-04 13:23 | 39.55329 | 19.92532 | 841 ft | 136 kts | 336° |
| 2026-05-04 13:23 | 39.56262 | 19.92211 | 674 ft | 141 kts | 347° |
| 2026-05-04 13:24 | 39.57224 | 19.91970 | 478 ft | 141 kts | 348° |
| 2026-05-04 13:24 | 39.58199 | 19.91729 | 272 ft | 144 kts | 349° |
| 2026-05-04 13:24 | 39.59180 | 19.91479 | 55 ft | 143 kts | 348° |
| 2026-05-04 13:25 | 39.60435 | 19.91152 | 9 ft | 24 kts | 351° |
| 2026-05-04 13:25 | 39.60582 | 19.91202 | 8 ft | 15 kts | 28° |
| 2026-05-04 13:25 | 39.60652 | 19.91271 | 8 ft | 5 kts | 28° |
| 2026-05-04 13:25 | 39.60698 | 19.91271 | 6 ft | 9 kts | 350° |
| 2026-05-04 13:26 | 39.60748 | 19.91260 | 5 ft | 2 kts | 356° |
| 2026-05-04 13:26 | 39.60766 | 19.91276 | 5 ft | 4 kts | 50° |
| 2026-05-04 13:26 | 39.60777 | 19.91320 | 5 ft | 3 kts | 77° |
| 2026-05-04 13:26 | 39.60779 | 19.91331 | 6 ft | 0 kts | 77° |
| 2026-05-04 13:27 | 39.60779 | 19.91332 | 6 ft | 0 kts | 77° |